sensor_id;sensor_type;location;lat;lon;timestamp;P1;durP1;ratioP1;P2;durP2;ratioP2
54983;SDS011;40884;53.562;9.940;2022-09-27T00:00:31;1.43;;;1.30;;
54983;SDS011;40884;53.562;9.940;2022-09-27T00:01:32;1.70;;;1.43;;
54983;SDS011;40884;53.562;9.940;2022-09-27T00:02:32;2.23;;;1.43;;
54983;SDS011;40884;53.562;9.940;2022-09-27T00:03:32;1.57;;;1.40;;
54983;SDS011;40884;53.562;9.940;2022-09-27T00:04:32;1.50;;;1.40;;
54983;SDS011;40884;53.562;9.940;2022-09-27T00:05:32;1.60;;;1.40;;
54983;SDS011;40884;53.562;9.940;2022-09-27T00:06:32;2.50;;;1.37;;
54983;SDS011;40884;53.562;9.940;2022-09-27T00:07:32;1.50;;;1.40;;
54983;SDS011;40884;53.562;9.940;2022-09-27T00:08:33;2.47;;;1.50;;
54983;SDS011;40884;53.562;9.940;2022-09-27T00:09:33;1.53;;;1.30;;
54983;SDS011;40884;53.562;9.940;2022-09-27T00:10:33;1.60;;;1.50;;
54983;SDS011;40884;53.562;9.940;2022-09-27T00:11:35;2.33;;;1.30;;
54983;SDS011;40884;53.562;9.940;2022-09-27T00:12:36;2.77;;;1.40;;
54983;SDS011;40884;53.562;9.940;2022-09-27T00:13:36;2.90;;;1.17;;
54983;SDS011;40884;53.562;9.940;2022-09-27T00:14:36;2.53;;;1.53;;
54983;SDS011;40884;53.562;9.940;2022-09-27T00:15:36;1.57;;;1.40;;
54983;SDS011;40884;53.562;9.940;2022-09-27T00:16:37;1.30;;;1.20;;
54983;SDS011;40884;53.562;9.940;2022-09-27T00:17:37;1.53;;;1.30;;
54983;SDS011;40884;53.562;9.940;2022-09-27T00:18:37;1.40;;;1.30;;
54983;SDS011;40884;53.562;9.940;2022-09-27T00:19:38;1.77;;;1.50;;
54983;SDS011;40884;53.562;9.940;2022-09-27T00:20:38;2.67;;;1.43;;
54983;SDS011;40884;53.562;9.940;2022-09-27T00:21:38;2.50;;;1.40;;
54983;SDS011;40884;53.562;9.940;2022-09-27T00:22:38;1.60;;;1.50;;
54983;SDS011;40884;53.562;9.940;2022-09-27T00:23:38;1.80;;;1.53;;
54983;SDS011;40884;53.562;9.940;2022-09-27T00:24:38;2.20;;;1.40;;
54983;SDS011;40884;53.562;9.940;2022-09-27T00:25:38;3.07;;;1.33;;
54983;SDS011;40884;53.562;9.940;2022-09-27T00:26:39;2.73;;;1.73;;
54983;SDS011;40884;53.562;9.940;2022-09-27T00:27:39;1.83;;;1.73;;
54983;SDS011;40884;53.562;9.940;2022-09-27T00:28:39;2.10;;;1.73;;
54983;SDS011;40884;53.562;9.940;2022-09-27T00:29:39;2.03;;;1.57;;
54983;SDS011;40884;53.562;9.940;2022-09-27T00:30:42;2.70;;;1.60;;
54983;SDS011;40884;53.562;9.940;2022-09-27T00:31:42;2.00;;;1.67;;
54983;SDS011;40884;53.562;9.940;2022-09-27T00:32:42;1.70;;;1.60;;
54983;SDS011;40884;53.562;9.940;2022-09-27T00:33:42;2.03;;;1.70;;
54983;SDS011;40884;53.562;9.940;2022-09-27T00:34:43;2.50;;;1.83;;
54983;SDS011;40884;53.562;9.940;2022-09-27T00:35:43;1.77;;;1.40;;
54983;SDS011;40884;53.562;9.940;2022-09-27T00:36:43;1.60;;;1.50;;
54983;SDS011;40884;53.562;9.940;2022-09-27T00:37:46;3.03;;;1.57;;
54983;SDS011;40884;53.562;9.940;2022-09-27T00:38:46;3.17;;;1.87;;
54983;SDS011;40884;53.562;9.940;2022-09-27T00:39:47;2.53;;;1.40;;
54983;SDS011;40884;53.562;9.940;2022-09-27T00:40:47;1.60;;;1.50;;
54983;SDS011;40884;53.562;9.940;2022-09-27T00:41:47;1.77;;;1.30;;
54983;SDS011;40884;53.562;9.940;2022-09-27T00:42:47;1.40;;;1.30;;
54983;SDS011;40884;53.562;9.940;2022-09-27T00:43:49;1.20;;;1.10;;
54983;SDS011;40884;53.562;9.940;2022-09-27T00:44:54;1.87;;;1.37;;
54983;SDS011;40884;53.562;9.940;2022-09-27T00:45:58;3.40;;;1.53;;
54983;SDS011;40884;53.562;9.940;2022-09-27T00:48:03;1.73;;;1.40;;
54983;SDS011;40884;53.562;9.940;2022-09-27T00:49:18;1.90;;;1.20;;
54983;SDS011;40884;53.562;9.940;2022-09-27T00:51:21;2.53;;;1.50;;
54983;SDS011;40884;53.562;9.940;2022-09-27T00:52:26;2.13;;;1.60;;
54983;SDS011;40884;53.562;9.940;2022-09-27T00:53:32;1.43;;;1.20;;
54983;SDS011;40884;53.562;9.940;2022-09-27T00:54:35;1.50;;;1.40;;
54983;SDS011;40884;53.562;9.940;2022-09-27T00:55:37;1.70;;;1.40;;
54983;SDS011;40884;53.562;9.940;2022-09-27T00:56:38;2.10;;;1.57;;
54983;SDS011;40884;53.562;9.940;2022-09-27T00:57:39;1.40;;;1.30;;
54983;SDS011;40884;53.562;9.940;2022-09-27T00:58:42;3.70;;;1.40;;
54983;SDS011;40884;53.562;9.940;2022-09-27T00:59:45;1.50;;;1.40;;
54983;SDS011;40884;53.562;9.940;2022-09-27T01:00:47;2.70;;;1.50;;
54983;SDS011;40884;53.562;9.940;2022-09-27T01:01:49;2.13;;;1.40;;
54983;SDS011;40884;53.562;9.940;2022-09-27T01:02:50;1.43;;;1.30;;
54983;SDS011;40884;53.562;9.940;2022-09-27T01:03:54;1.90;;;1.27;;
54983;SDS011;40884;53.562;9.940;2022-09-27T01:04:56;1.13;;;1.03;;
54983;SDS011;40884;53.562;9.940;2022-09-27T01:05:56;3.07;;;1.50;;
54983;SDS011;40884;53.562;9.940;2022-09-27T01:06:57;1.40;;;1.27;;
54983;SDS011;40884;53.562;9.940;2022-09-27T01:07:57;2.87;;;1.70;;
54983;SDS011;40884;53.562;9.940;2022-09-27T01:08:57;1.77;;;1.17;;
54983;SDS011;40884;53.562;9.940;2022-09-27T01:09:57;2.20;;;1.33;;
54983;SDS011;40884;53.562;9.940;2022-09-27T01:11:10;2.27;;;1.40;;
54983;SDS011;40884;53.562;9.940;2022-09-27T01:13:34;2.03;;;1.23;;
54983;SDS011;40884;53.562;9.940;2022-09-27T01:15:41;1.30;;;1.20;;
54983;SDS011;40884;53.562;9.940;2022-09-27T01:16:46;2.43;;;1.63;;
54983;SDS011;40884;53.562;9.940;2022-09-27T01:17:50;2.07;;;1.57;;
54983;SDS011;40884;53.562;9.940;2022-09-27T01:21:37;3.13;;;1.60;;
54983;SDS011;40884;53.562;9.940;2022-09-27T01:22:41;1.90;;;1.60;;
54983;SDS011;40884;53.562;9.940;2022-09-27T01:25:03;1.57;;;1.40;;
54983;SDS011;40884;53.562;9.940;2022-09-27T01:26:10;1.90;;;1.40;;
54983;SDS011;40884;53.562;9.940;2022-09-27T01:27:18;1.40;;;1.30;;
54983;SDS011;40884;53.562;9.940;2022-09-27T01:28:30;2.97;;;1.60;;
54983;SDS011;40884;53.562;9.940;2022-09-27T01:29:46;2.57;;;1.43;;
54983;SDS011;40884;53.562;9.940;2022-09-27T01:31:01;4.00;;;1.20;;
54983;SDS011;40884;53.562;9.940;2022-09-27T01:32:04;1.93;;;1.20;;
54983;SDS011;40884;53.562;9.940;2022-09-27T01:33:23;2.13;;;1.43;;
54983;SDS011;40884;53.562;9.940;2022-09-27T01:35:44;1.87;;;1.20;;
54983;SDS011;40884;53.562;9.940;2022-09-27T01:37:01;1.73;;;1.30;;
54983;SDS011;40884;53.562;9.940;2022-09-27T01:38:23;1.60;;;1.30;;
54983;SDS011;40884;53.562;9.940;2022-09-27T01:41:05;1.67;;;1.57;;
54983;SDS011;40884;53.562;9.940;2022-09-27T01:42:36;1.30;;;1.20;;
54983;SDS011;40884;53.562;9.940;2022-09-27T01:43:42;1.63;;;1.20;;
54983;SDS011;40884;53.562;9.940;2022-09-27T01:44:45;2.00;;;1.40;;
54983;SDS011;40884;53.562;9.940;2022-09-27T01:47:15;2.13;;;1.43;;
54983;SDS011;40884;53.562;9.940;2022-09-27T01:48:25;1.50;;;1.20;;
54983;SDS011;40884;53.562;9.940;2022-09-27T01:49:31;1.90;;;1.30;;
54983;SDS011;40884;53.562;9.940;2022-09-27T01:50:34;1.20;;;1.10;;
54983;SDS011;40884;53.562;9.940;2022-09-27T01:51:38;1.80;;;1.20;;
54983;SDS011;40884;53.562;9.940;2022-09-27T01:52:47;2.23;;;1.20;;
54983;SDS011;40884;53.562;9.940;2022-09-27T01:53:52;2.57;;;1.30;;
54983;SDS011;40884;53.562;9.940;2022-09-27T01:55:02;1.57;;;1.23;;
54983;SDS011;40884;53.562;9.940;2022-09-27T01:56:18;2.30;;;1.10;;
54983;SDS011;40884;53.562;9.940;2022-09-27T01:57:26;2.23;;;1.30;;
54983;SDS011;40884;53.562;9.940;2022-09-27T01:58:32;1.47;;;1.03;;
54983;SDS011;40884;53.562;9.940;2022-09-27T01:59:35;1.13;;;1.03;;
54983;SDS011;40884;53.562;9.940;2022-09-27T02:00:48;2.07;;;1.10;;
54983;SDS011;40884;53.562;9.940;2022-09-27T02:01:52;2.53;;;1.37;;
54983;SDS011;40884;53.562;9.940;2022-09-27T02:02:57;1.47;;;1.23;;
54983;SDS011;40884;53.562;9.940;2022-09-27T02:04:01;2.57;;;1.30;;
54983;SDS011;40884;53.562;9.940;2022-09-27T02:05:20;1.93;;;1.40;;
54983;SDS011;40884;53.562;9.940;2022-09-27T02:06:34;1.50;;;1.40;;
54983;SDS011;40884;53.562;9.940;2022-09-27T02:07:50;1.57;;;1.20;;
54983;SDS011;40884;53.562;9.940;2022-09-27T02:08:56;1.70;;;1.10;;
54983;SDS011;40884;53.562;9.940;2022-09-27T02:10:14;1.23;;;1.10;;
54983;SDS011;40884;53.562;9.940;2022-09-27T02:11:26;1.60;;;1.20;;
54983;SDS011;40884;53.562;9.940;2022-09-27T02:12:38;2.00;;;1.17;;
54983;SDS011;40884;53.562;9.940;2022-09-27T02:13:53;1.10;;;1.00;;
54983;SDS011;40884;53.562;9.940;2022-09-27T02:15:12;2.33;;;1.13;;
54983;SDS011;40884;53.562;9.940;2022-09-27T02:16:19;1.30;;;1.20;;
54983;SDS011;40884;53.562;9.940;2022-09-27T02:17:28;1.93;;;1.40;;
54983;SDS011;40884;53.562;9.940;2022-09-27T02:20:05;1.20;;;1.07;;
54983;SDS011;40884;53.562;9.940;2022-09-27T02:21:14;2.07;;;1.43;;
54983;SDS011;40884;53.562;9.940;2022-09-27T02:22:16;1.37;;;1.10;;
54983;SDS011;40884;53.562;9.940;2022-09-27T02:23:25;1.23;;;1.13;;
54983;SDS011;40884;53.562;9.940;2022-09-27T02:24:47;1.17;;;1.00;;
54983;SDS011;40884;53.562;9.940;2022-09-27T02:25:56;1.83;;;1.10;;
54983;SDS011;40884;53.562;9.940;2022-09-27T02:27:00;3.00;;;1.07;;
54983;SDS011;40884;53.562;9.940;2022-09-27T02:28:20;1.20;;;1.10;;
54983;SDS011;40884;53.562;9.940;2022-09-27T02:29:28;0.90;;;0.90;;
54983;SDS011;40884;53.562;9.940;2022-09-27T02:30:30;1.50;;;0.93;;
54983;SDS011;40884;53.562;9.940;2022-09-27T02:31:39;1.23;;;1.13;;
54983;SDS011;40884;53.562;9.940;2022-09-27T02:32:40;1.10;;;1.00;;
54983;SDS011;40884;53.562;9.940;2022-09-27T02:33:58;1.30;;;1.20;;
54983;SDS011;40884;53.562;9.940;2022-09-27T02:35:00;1.33;;;1.10;;
54983;SDS011;40884;53.562;9.940;2022-09-27T02:36:01;1.27;;;1.03;;
54983;SDS011;40884;53.562;9.940;2022-09-27T02:37:01;1.33;;;1.10;;
54983;SDS011;40884;53.562;9.940;2022-09-27T02:38:02;1.20;;;1.10;;
54983;SDS011;40884;53.562;9.940;2022-09-27T02:39:03;2.57;;;0.90;;
54983;SDS011;40884;53.562;9.940;2022-09-27T02:40:05;1.37;;;0.90;;
54983;SDS011;40884;53.562;9.940;2022-09-27T02:41:15;1.13;;;0.90;;
54983;SDS011;40884;53.562;9.940;2022-09-27T02:42:15;1.63;;;1.10;;
54983;SDS011;40884;53.562;9.940;2022-09-27T02:43:16;3.03;;;1.10;;
54983;SDS011;40884;53.562;9.940;2022-09-27T02:44:18;1.93;;;0.80;;
54983;SDS011;40884;53.562;9.940;2022-09-27T02:45:21;1.00;;;0.90;;
54983;SDS011;40884;53.562;9.940;2022-09-27T02:47:29;1.07;;;0.97;;
54983;SDS011;40884;53.562;9.940;2022-09-27T02:48:35;1.30;;;1.10;;
54983;SDS011;40884;53.562;9.940;2022-09-27T02:49:59;2.47;;;1.30;;
54983;SDS011;40884;53.562;9.940;2022-09-27T02:52:36;1.37;;;1.13;;
54983;SDS011;40884;53.562;9.940;2022-09-27T02:53:51;1.63;;;0.93;;
54983;SDS011;40884;53.562;9.940;2022-09-27T02:55:18;0.90;;;0.90;;
54983;SDS011;40884;53.562;9.940;2022-09-27T02:56:42;2.03;;;1.30;;
54983;SDS011;40884;53.562;9.940;2022-09-27T02:58:29;1.67;;;1.30;;
54983;SDS011;40884;53.562;9.940;2022-09-27T02:59:57;1.40;;;1.30;;
54983;SDS011;40884;53.562;9.940;2022-09-27T03:01:12;1.33;;;1.00;;
54983;SDS011;40884;53.562;9.940;2022-09-27T03:02:48;1.00;;;0.90;;
54983;SDS011;40884;53.562;9.940;2022-09-27T03:04:15;1.40;;;1.20;;
54983;SDS011;40884;53.562;9.940;2022-09-27T03:05:17;2.27;;;1.00;;
54983;SDS011;40884;53.562;9.940;2022-09-27T03:06:19;1.13;;;0.90;;
54983;SDS011;40884;53.562;9.940;2022-09-27T03:07:20;1.63;;;1.30;;
54983;SDS011;40884;53.562;9.940;2022-09-27T03:08:21;1.27;;;1.17;;
54983;SDS011;40884;53.562;9.940;2022-09-27T03:09:23;1.10;;;1.00;;
54983;SDS011;40884;53.562;9.940;2022-09-27T03:10:24;1.27;;;0.90;;
54983;SDS011;40884;53.562;9.940;2022-09-27T03:11:25;1.10;;;1.00;;
54983;SDS011;40884;53.562;9.940;2022-09-27T03:12:25;3.13;;;1.30;;
54983;SDS011;40884;53.562;9.940;2022-09-27T03:13:25;0.80;;;0.70;;
54983;SDS011;40884;53.562;9.940;2022-09-27T03:14:27;1.80;;;1.03;;
54983;SDS011;40884;53.562;9.940;2022-09-27T03:15:38;1.37;;;1.10;;
54983;SDS011;40884;53.562;9.940;2022-09-27T03:16:38;2.27;;;0.93;;
54983;SDS011;40884;53.562;9.940;2022-09-27T03:18:01;2.93;;;1.30;;
54983;SDS011;40884;53.562;9.940;2022-09-27T03:19:22;2.37;;;1.30;;
54983;SDS011;40884;53.562;9.940;2022-09-27T03:20:45;1.97;;;1.30;;
54983;SDS011;40884;53.562;9.940;2022-09-27T03:21:50;1.80;;;1.33;;
54983;SDS011;40884;53.562;9.940;2022-09-27T03:22:50;1.30;;;1.20;;
54983;SDS011;40884;53.562;9.940;2022-09-27T03:23:50;2.20;;;1.20;;
54983;SDS011;40884;53.562;9.940;2022-09-27T03:24:50;1.50;;;1.40;;
54983;SDS011;40884;53.562;9.940;2022-09-27T03:25:51;1.57;;;1.30;;
54983;SDS011;40884;53.562;9.940;2022-09-27T03:26:51;1.40;;;1.30;;
54983;SDS011;40884;53.562;9.940;2022-09-27T03:27:51;1.53;;;1.43;;
54983;SDS011;40884;53.562;9.940;2022-09-27T03:28:52;2.03;;;1.63;;
54983;SDS011;40884;53.562;9.940;2022-09-27T03:29:52;1.90;;;1.70;;
54983;SDS011;40884;53.562;9.940;2022-09-27T03:30:52;1.97;;;1.40;;
54983;SDS011;40884;53.562;9.940;2022-09-27T03:32:11;2.73;;;1.50;;
54983;SDS011;40884;53.562;9.940;2022-09-27T03:33:31;1.53;;;1.43;;
54983;SDS011;40884;53.562;9.940;2022-09-27T03:34:32;2.77;;;1.60;;
54983;SDS011;40884;53.562;9.940;2022-09-27T03:35:33;1.30;;;1.23;;
54983;SDS011;40884;53.562;9.940;2022-09-27T03:36:33;1.50;;;1.30;;
54983;SDS011;40884;53.562;9.940;2022-09-27T03:37:34;1.47;;;1.33;;
54983;SDS011;40884;53.562;9.940;2022-09-27T03:38:34;1.60;;;1.50;;
54983;SDS011;40884;53.562;9.940;2022-09-27T03:39:34;2.37;;;1.40;;
54983;SDS011;40884;53.562;9.940;2022-09-27T03:40:34;1.80;;;1.70;;
54983;SDS011;40884;53.562;9.940;2022-09-27T03:41:35;1.70;;;1.40;;
54983;SDS011;40884;53.562;9.940;2022-09-27T03:42:35;2.10;;;1.30;;
54983;SDS011;40884;53.562;9.940;2022-09-27T03:43:35;2.97;;;1.43;;
54983;SDS011;40884;53.562;9.940;2022-09-27T03:44:37;5.77;;;2.00;;
54983;SDS011;40884;53.562;9.940;2022-09-27T03:45:37;1.93;;;1.67;;
54983;SDS011;40884;53.562;9.940;2022-09-27T03:46:40;1.80;;;1.50;;
54983;SDS011;40884;53.562;9.940;2022-09-27T03:47:41;1.43;;;1.33;;
54983;SDS011;40884;53.562;9.940;2022-09-27T03:48:41;2.43;;;1.20;;
54983;SDS011;40884;53.562;9.940;2022-09-27T03:49:41;2.77;;;1.50;;
54983;SDS011;40884;53.562;9.940;2022-09-27T03:50:41;3.17;;;1.67;;
54983;SDS011;40884;53.562;9.940;2022-09-27T03:51:41;1.23;;;1.13;;
54983;SDS011;40884;53.562;9.940;2022-09-27T03:52:42;1.90;;;1.70;;
54983;SDS011;40884;53.562;9.940;2022-09-27T03:53:42;1.80;;;1.70;;
54983;SDS011;40884;53.562;9.940;2022-09-27T03:54:43;2.17;;;1.50;;
54983;SDS011;40884;53.562;9.940;2022-09-27T03:55:44;1.90;;;1.30;;
54983;SDS011;40884;53.562;9.940;2022-09-27T03:56:44;2.07;;;1.77;;
54983;SDS011;40884;53.562;9.940;2022-09-27T03:57:45;1.73;;;1.37;;
54983;SDS011;40884;53.562;9.940;2022-09-27T03:58:46;1.90;;;1.40;;
54983;SDS011;40884;53.562;9.940;2022-09-27T03:59:47;2.70;;;1.70;;
54983;SDS011;40884;53.562;9.940;2022-09-27T04:01:06;1.90;;;1.80;;
54983;SDS011;40884;53.562;9.940;2022-09-27T04:02:07;2.27;;;1.80;;
54983;SDS011;40884;53.562;9.940;2022-09-27T04:03:30;2.23;;;2.00;;
54983;SDS011;40884;53.562;9.940;2022-09-27T04:04:49;3.00;;;1.93;;
54983;SDS011;40884;53.562;9.940;2022-09-27T04:05:49;3.00;;;2.03;;
54983;SDS011;40884;53.562;9.940;2022-09-27T04:06:53;2.60;;;2.03;;
54983;SDS011;40884;53.562;9.940;2022-09-27T04:07:53;1.83;;;1.63;;
54983;SDS011;40884;53.562;9.940;2022-09-27T04:08:53;2.30;;;2.10;;
54983;SDS011;40884;53.562;9.940;2022-09-27T04:09:56;2.23;;;2.00;;
54983;SDS011;40884;53.562;9.940;2022-09-27T04:10:56;2.37;;;2.17;;
54983;SDS011;40884;53.562;9.940;2022-09-27T04:11:56;2.87;;;2.30;;
54983;SDS011;40884;53.562;9.940;2022-09-27T04:12:56;2.20;;;2.00;;
54983;SDS011;40884;53.562;9.940;2022-09-27T04:13:59;2.73;;;2.17;;
54983;SDS011;40884;53.562;9.940;2022-09-27T04:15:07;2.13;;;1.93;;
54983;SDS011;40884;53.562;9.940;2022-09-27T04:16:37;3.80;;;2.87;;
54983;SDS011;40884;53.562;9.940;2022-09-27T04:17:56;2.90;;;2.40;;
54983;SDS011;40884;53.562;9.940;2022-09-27T04:19:08;3.70;;;3.40;;
54983;SDS011;40884;53.562;9.940;2022-09-27T04:20:11;3.50;;;3.20;;
54983;SDS011;40884;53.562;9.940;2022-09-27T04:21:13;3.47;;;3.17;;
54983;SDS011;40884;53.562;9.940;2022-09-27T04:22:19;7.87;;;2.80;;
54983;SDS011;40884;53.562;9.940;2022-09-27T04:23:19;3.27;;;2.97;;
54983;SDS011;40884;53.562;9.940;2022-09-27T04:24:24;3.67;;;3.10;;
54983;SDS011;40884;53.562;9.940;2022-09-27T04:25:47;4.50;;;4.07;;
54983;SDS011;40884;53.562;9.940;2022-09-27T04:27:06;3.17;;;2.87;;
54983;SDS011;40884;53.562;9.940;2022-09-27T04:28:06;3.50;;;3.17;;
54983;SDS011;40884;53.562;9.940;2022-09-27T04:29:07;3.63;;;3.10;;
54983;SDS011;40884;53.562;9.940;2022-09-27T04:30:11;4.80;;;3.33;;
54983;SDS011;40884;53.562;9.940;2022-09-27T04:31:37;5.07;;;3.67;;
54983;SDS011;40884;53.562;9.940;2022-09-27T04:32:56;5.00;;;4.50;;
54983;SDS011;40884;53.562;9.940;2022-09-27T04:34:15;5.10;;;4.13;;
54983;SDS011;40884;53.562;9.940;2022-09-27T04:35:15;4.33;;;3.93;;
54983;SDS011;40884;53.562;9.940;2022-09-27T04:36:16;3.50;;;3.17;;
54983;SDS011;40884;53.562;9.940;2022-09-27T04:37:39;4.27;;;3.73;;
54983;SDS011;40884;53.562;9.940;2022-09-27T04:38:39;4.60;;;3.70;;
54983;SDS011;40884;53.562;9.940;2022-09-27T04:39:40;4.47;;;3.93;;
54983;SDS011;40884;53.562;9.940;2022-09-27T04:40:40;9.97;;;8.00;;
54983;SDS011;40884;53.562;9.940;2022-09-27T04:41:42;8.40;;;6.80;;
54983;SDS011;40884;53.562;9.940;2022-09-27T04:42:42;6.50;;;5.77;;
54983;SDS011;40884;53.562;9.940;2022-09-27T04:43:42;5.13;;;4.63;;
54983;SDS011;40884;53.562;9.940;2022-09-27T04:44:42;5.87;;;5.30;;
54983;SDS011;40884;53.562;9.940;2022-09-27T04:45:43;5.60;;;5.10;;
54983;SDS011;40884;53.562;9.940;2022-09-27T04:46:43;5.50;;;5.00;;
54983;SDS011;40884;53.562;9.940;2022-09-27T04:47:45;5.50;;;5.00;;
54983;SDS011;40884;53.562;9.940;2022-09-27T04:48:47;5.17;;;4.77;;
54983;SDS011;40884;53.562;9.940;2022-09-27T04:49:47;6.90;;;5.60;;
54983;SDS011;40884;53.562;9.940;2022-09-27T04:50:54;8.40;;;6.67;;
54983;SDS011;40884;53.562;9.940;2022-09-27T04:51:54;7.60;;;6.03;;
54983;SDS011;40884;53.562;9.940;2022-09-27T04:52:55;5.87;;;5.33;;
54983;SDS011;40884;53.562;9.940;2022-09-27T04:53:56;6.47;;;5.80;;
54983;SDS011;40884;53.562;9.940;2022-09-27T04:54:58;6.07;;;5.47;;
54983;SDS011;40884;53.562;9.940;2022-09-27T04:55:58;5.50;;;5.00;;
54983;SDS011;40884;53.562;9.940;2022-09-27T04:56:59;5.40;;;4.90;;
54983;SDS011;40884;53.562;9.940;2022-09-27T04:57:59;5.23;;;4.73;;
54983;SDS011;40884;53.562;9.940;2022-09-27T04:58:59;5.40;;;4.87;;
54983;SDS011;40884;53.562;9.940;2022-09-27T04:59:59;5.53;;;5.03;;
54983;SDS011;40884;53.562;9.940;2022-09-27T05:01:00;5.97;;;5.37;;
54983;SDS011;40884;53.562;9.940;2022-09-27T05:02:35;6.30;;;5.70;;
54983;SDS011;40884;53.562;9.940;2022-09-27T05:04:08;6.93;;;6.23;;
54983;SDS011;40884;53.562;9.940;2022-09-27T05:05:11;7.20;;;6.50;;
54983;SDS011;40884;53.562;9.940;2022-09-27T05:06:15;5.43;;;4.93;;
54983;SDS011;40884;53.562;9.940;2022-09-27T05:07:15;6.60;;;5.90;;
54983;SDS011;40884;53.562;9.940;2022-09-27T05:08:19;6.80;;;6.20;;
54983;SDS011;40884;53.562;9.940;2022-09-27T05:09:46;7.47;;;6.50;;
54983;SDS011;40884;53.562;9.940;2022-09-27T05:10:46;8.47;;;7.40;;
54983;SDS011;40884;53.562;9.940;2022-09-27T05:11:47;8.40;;;7.10;;
54983;SDS011;40884;53.562;9.940;2022-09-27T05:12:49;7.97;;;7.20;;
54983;SDS011;40884;53.562;9.940;2022-09-27T05:13:50;9.97;;;8.20;;
54983;SDS011;40884;53.562;9.940;2022-09-27T05:14:50;10.20;;;8.63;;
54983;SDS011;40884;53.562;9.940;2022-09-27T05:16:06;9.60;;;8.40;;
54983;SDS011;40884;53.562;9.940;2022-09-27T05:17:35;10.90;;;8.67;;
54983;SDS011;40884;53.562;9.940;2022-09-27T05:18:54;7.93;;;7.20;;
54983;SDS011;40884;53.562;9.940;2022-09-27T05:20:13;8.37;;;7.07;;
54983;SDS011;40884;53.562;9.940;2022-09-27T05:21:26;8.20;;;7.40;;
54983;SDS011;40884;53.562;9.940;2022-09-27T05:22:26;7.77;;;6.97;;
54983;SDS011;40884;53.562;9.940;2022-09-27T05:23:27;8.60;;;6.90;;
54983;SDS011;40884;53.562;9.940;2022-09-27T05:24:27;7.97;;;7.10;;
54983;SDS011;40884;53.562;9.940;2022-09-27T05:25:27;7.13;;;6.43;;
54983;SDS011;40884;53.562;9.940;2022-09-27T05:26:27;7.43;;;6.50;;
54983;SDS011;40884;53.562;9.940;2022-09-27T05:27:28;6.57;;;5.70;;
54983;SDS011;40884;53.562;9.940;2022-09-27T05:28:28;7.77;;;6.90;;
54983;SDS011;40884;53.562;9.940;2022-09-27T05:29:28;7.87;;;6.87;;
54983;SDS011;40884;53.562;9.940;2022-09-27T05:30:50;8.20;;;7.30;;
54983;SDS011;40884;53.562;9.940;2022-09-27T05:31:53;8.70;;;7.80;;
54983;SDS011;40884;53.562;9.940;2022-09-27T05:32:54;10.20;;;8.53;;
54983;SDS011;40884;53.562;9.940;2022-09-27T05:34:14;9.10;;;8.20;;
54983;SDS011;40884;53.562;9.940;2022-09-27T05:35:22;9.70;;;8.73;;
54983;SDS011;40884;53.562;9.940;2022-09-27T05:36:22;10.97;;;8.67;;
54983;SDS011;40884;53.562;9.940;2022-09-27T05:37:23;11.10;;;9.50;;
54983;SDS011;40884;53.562;9.940;2022-09-27T05:38:23;9.93;;;8.03;;
54983;SDS011;40884;53.562;9.940;2022-09-27T05:39:26;11.00;;;9.27;;
54983;SDS011;40884;53.562;9.940;2022-09-27T05:40:26;9.40;;;8.50;;
54983;SDS011;40884;53.562;9.940;2022-09-27T05:41:27;11.50;;;10.40;;
54983;SDS011;40884;53.562;9.940;2022-09-27T05:42:27;11.53;;;9.60;;
54983;SDS011;40884;53.562;9.940;2022-09-27T05:43:27;9.73;;;8.70;;
54983;SDS011;40884;53.562;9.940;2022-09-27T05:44:29;13.20;;;10.63;;
54983;SDS011;40884;53.562;9.940;2022-09-27T05:45:32;12.40;;;11.10;;
54983;SDS011;40884;53.562;9.940;2022-09-27T05:46:36;10.60;;;9.27;;
54983;SDS011;40884;53.562;9.940;2022-09-27T05:47:37;13.30;;;11.90;;
54983;SDS011;40884;53.562;9.940;2022-09-27T05:48:37;16.30;;;13.73;;
54983;SDS011;40884;53.562;9.940;2022-09-27T05:49:40;13.23;;;11.83;;
54983;SDS011;40884;53.562;9.940;2022-09-27T05:50:41;12.50;;;11.03;;
54983;SDS011;40884;53.562;9.940;2022-09-27T05:51:41;14.67;;;12.63;;
54983;SDS011;40884;53.562;9.940;2022-09-27T05:52:42;15.37;;;13.03;;
54983;SDS011;40884;53.562;9.940;2022-09-27T05:53:42;13.90;;;12.50;;
54983;SDS011;40884;53.562;9.940;2022-09-27T05:54:52;12.90;;;11.53;;
54983;SDS011;40884;53.562;9.940;2022-09-27T05:55:53;14.40;;;11.63;;
54983;SDS011;40884;53.562;9.940;2022-09-27T05:57:00;13.97;;;12.57;;
54983;SDS011;40884;53.562;9.940;2022-09-27T05:58:14;16.90;;;12.57;;
54983;SDS011;40884;53.562;9.940;2022-09-27T05:59:19;14.70;;;11.70;;
54983;SDS011;40884;53.562;9.940;2022-09-27T06:00:57;14.13;;;11.33;;
54983;SDS011;40884;53.562;9.940;2022-09-27T06:02:16;12.50;;;11.20;;
54983;SDS011;40884;53.562;9.940;2022-09-27T06:03:41;13.57;;;11.27;;
54983;SDS011;40884;53.562;9.940;2022-09-27T06:04:41;11.77;;;10.47;;
54983;SDS011;40884;53.562;9.940;2022-09-27T06:06:07;10.43;;;9.43;;
54983;SDS011;40884;53.562;9.940;2022-09-27T06:07:15;12.03;;;10.07;;
54983;SDS011;40884;53.562;9.940;2022-09-27T06:08:15;12.70;;;10.33;;
54983;SDS011;40884;53.562;9.940;2022-09-27T06:09:19;13.23;;;10.10;;
54983;SDS011;40884;53.562;9.940;2022-09-27T06:10:21;12.37;;;10.10;;
54983;SDS011;40884;53.562;9.940;2022-09-27T06:11:21;11.73;;;9.80;;
54983;SDS011;40884;53.562;9.940;2022-09-27T06:12:23;9.87;;;8.90;;
54983;SDS011;40884;53.562;9.940;2022-09-27T06:13:23;13.40;;;10.53;;
54983;SDS011;40884;53.562;9.940;2022-09-27T06:14:23;10.97;;;9.83;;
54983;SDS011;40884;53.562;9.940;2022-09-27T06:15:46;13.00;;;10.03;;
54983;SDS011;40884;53.562;9.940;2022-09-27T06:16:47;10.90;;;9.40;;
54983;SDS011;40884;53.562;9.940;2022-09-27T06:17:47;13.90;;;10.90;;
54983;SDS011;40884;53.562;9.940;2022-09-27T06:18:50;10.83;;;9.77;;
54983;SDS011;40884;53.562;9.940;2022-09-27T06:19:50;11.70;;;10.13;;
54983;SDS011;40884;53.562;9.940;2022-09-27T06:20:51;12.83;;;10.13;;
54983;SDS011;40884;53.562;9.940;2022-09-27T06:21:51;12.17;;;10.60;;
54983;SDS011;40884;53.562;9.940;2022-09-27T06:22:51;12.13;;;10.20;;
54983;SDS011;40884;53.562;9.940;2022-09-27T06:23:52;10.57;;;9.00;;
54983;SDS011;40884;53.562;9.940;2022-09-27T06:24:57;11.03;;;9.10;;
54983;SDS011;40884;53.562;9.940;2022-09-27T06:26:04;9.73;;;8.73;;
54983;SDS011;40884;53.562;9.940;2022-09-27T06:27:30;8.83;;;7.93;;
54983;SDS011;40884;53.562;9.940;2022-09-27T06:28:36;8.93;;;7.47;;
54983;SDS011;40884;53.562;9.940;2022-09-27T06:29:38;8.93;;;7.53;;
54983;SDS011;40884;53.562;9.940;2022-09-27T06:30:45;8.20;;;6.97;;
54983;SDS011;40884;53.562;9.940;2022-09-27T06:31:55;7.90;;;7.10;;
54983;SDS011;40884;53.562;9.940;2022-09-27T06:33:02;8.43;;;7.60;;
54983;SDS011;40884;53.562;9.940;2022-09-27T06:34:10;6.07;;;5.00;;
54983;SDS011;40884;53.562;9.940;2022-09-27T06:35:10;6.53;;;5.83;;
54983;SDS011;40884;53.562;9.940;2022-09-27T06:36:10;7.10;;;5.37;;
54983;SDS011;40884;53.562;9.940;2022-09-27T06:37:12;5.17;;;4.53;;
54983;SDS011;40884;53.562;9.940;2022-09-27T06:38:13;6.17;;;5.57;;
54983;SDS011;40884;53.562;9.940;2022-09-27T06:39:21;8.73;;;5.60;;
54983;SDS011;40884;53.562;9.940;2022-09-27T06:40:31;8.13;;;6.03;;
54983;SDS011;40884;53.562;9.940;2022-09-27T06:41:51;7.43;;;5.60;;
54983;SDS011;40884;53.562;9.940;2022-09-27T06:43:07;8.57;;;4.40;;
54983;SDS011;40884;53.562;9.940;2022-09-27T06:44:45;6.67;;;4.90;;
54983;SDS011;40884;53.562;9.940;2022-09-27T06:46:15;4.37;;;3.97;;
54983;SDS011;40884;53.562;9.940;2022-09-27T06:47:35;4.00;;;3.70;;
54983;SDS011;40884;53.562;9.940;2022-09-27T06:48:49;4.27;;;3.50;;
54983;SDS011;40884;53.562;9.940;2022-09-27T06:49:51;3.63;;;3.33;;
54983;SDS011;40884;53.562;9.940;2022-09-27T06:50:52;4.10;;;2.87;;
54983;SDS011;40884;53.562;9.940;2022-09-27T06:51:55;3.40;;;2.80;;
54983;SDS011;40884;53.562;9.940;2022-09-27T06:52:56;3.30;;;3.00;;